Dieppe, Canada
Current Conditions -  °F | °C
As of 10:00 AM on Friday 28 Nov 2014 (Local Time) from CYQM Reporting Station
Scattered Clouds Scattered Clouds  
Wind Chill:   Ceiling: Unl
Heat Index: 18°   Visibility: 15mi
Dew Point: 12°   Wind: 6mph
Humidity: 79%   Direction: 280°W
Pressure: 29.98"   Gusts: NA
Location:  46.1°N, 64.75°W
Report Text: CYQM 281400Z 28005KT 15SM SCT035 M08/M11 A2998 RMK CU4 SLP158
Loading
Personal Weather Stations






























Interactive Weather Map New forecast layout! Learn more

10-Day Weather Forecast

Advertisements
Track Severe Weather on mobile